Time;durP1;ratioP1;P1;durP2;ratioP2;P2;SDS_P1;SDS_P2;PMS_P1;PMS_P2;Temp;Humidity;BMP_temperature;BMP_pressure;BME280_temperature;BME280_humidity;BME280_pressure;Samples;Min_cycle;Max_cycle;Signal;HPM_P1;HPM_P2
2022/08/19 00:00:40;;;;;;;8.50;5.68;;;15.60;99.90;;;;;;5135158;27;20047;-59
2022/08/19 00:03:07;;;;;;;10.45;5.53;;;15.60;99.90;;;;;;5115902;27;20124;-59
2022/08/19 00:05:34;;;;;;;8.50;5.40;;;15.60;99.90;;;;;;5116742;27;20130;-59
2022/08/19 00:08:02;;;;;;;12.82;5.57;;;15.60;99.90;;;;;;5150443;27;20428;-58
2022/08/19 00:10:29;;;;;;;9.13;5.53;;;15.60;99.90;;;;;;5154817;27;20478;-58
2022/08/19 00:12:56;;;;;;;7.85;4.90;;;15.60;99.90;;;;;;5156007;27;20054;-58
2022/08/19 00:15:24;;;;;;;10.38;5.93;;;15.60;99.90;;;;;;5137337;27;20046;-58
2022/08/19 00:17:51;;;;;;;11.18;5.65;;;15.60;99.90;;;;;;5155109;27;20047;-59
2022/08/19 00:20:20;;;;;;;9.32;5.80;;;15.60;99.90;;;;;;5155683;27;20173;-59
2022/08/19 00:22:48;;;;;;;9.20;5.93;;;15.50;99.90;;;;;;5138950;27;20051;-60
2022/08/19 00:25:15;;;;;;;7.20;5.78;;;15.50;99.90;;;;;;5134629;27;20500;-59
2022/08/19 00:27:42;;;;;;;7.90;5.25;;;15.50;99.90;;;;;;5116559;27;20089;-59
2022/08/19 00:30:10;;;;;;;8.45;5.55;;;15.50;99.90;;;;;;5134187;27;20051;-58
2022/08/19 00:32:39;;;;;;;9.48;5.57;;;15.50;99.90;;;;;;5133676;27;20464;-59
2022/08/19 00:35:07;;;;;;;7.60;5.25;;;15.40;99.90;;;;;;5134698;27;20119;-59
2022/08/19 00:37:34;;;;;;;10.23;5.85;;;15.40;99.90;;;;;;5144867;27;20054;-59
2022/08/19 00:40:03;;;;;;;13.25;6.15;;;15.40;99.90;;;;;;5136994;27;20082;-59
2022/08/19 00:42:30;;;;;;;15.38;6.65;;;15.40;99.90;;;;;;5155223;27;20047;-59
2022/08/19 00:44:57;;;;;;;15.18;7.07;;;15.40;99.90;;;;;;5154231;27;20043;-60
2022/08/19 00:47:24;;;;;;;8.68;5.97;;;15.30;99.90;;;;;;5135683;27;20050;-59
2022/08/19 00:49:56;;;;;;;9.13;6.13;;;15.30;99.90;;;;;;5136836;27;20109;-59
2022/08/19 00:52:28;;;;;;;9.95;5.95;;;15.30;99.90;;;;;;5154044;27;20096;-58
2022/08/19 00:54:56;;;;;;;7.20;5.88;;;15.30;99.90;;;;;;5136367;27;20059;-58
2022/08/19 00:57:27;;;;;;;9.88;6.75;;;15.30;99.90;;;;;;5154861;27;20127;-57
2022/08/19 00:59:56;;;;;;;11.63;6.78;;;15.20;99.90;;;;;;5154400;27;20099;-58
2022/08/19 01:02:23;;;;;;;13.32;6.50;;;15.20;99.90;;;;;;5136364;27;20099;-59
2022/08/19 01:04:51;;;;;;;10.75;6.07;;;15.20;99.90;;;;;;5135624;27;20103;-58
2022/08/19 01:07:18;;;;;;;10.05;6.10;;;15.20;99.90;;;;;;5127246;27;20143;-59
2022/08/19 01:09:45;;;;;;;11.82;6.90;;;15.10;99.90;;;;;;5134218;27;20054;-59
2022/08/19 01:12:12;;;;;;;8.60;6.50;;;15.10;99.90;;;;;;5132888;27;20452;-59
2022/08/19 01:14:40;;;;;;;10.80;6.88;;;15.10;99.90;;;;;;5115671;27;20124;-57
2022/08/19 01:17:09;;;;;;;9.88;6.68;;;15.10;99.90;;;;;;5115514;28;20055;-59
2022/08/19 01:19:38;;;;;;;12.18;6.32;;;15.10;99.90;;;;;;5133361;27;20070;-57
2022/08/19 01:22:11;;;;;;;8.52;6.07;;;15.10;99.90;;;;;;5115596;28;20130;-59
2022/08/19 01:24:40;;;;;;;9.40;6.10;;;15.00;99.90;;;;;;5141283;27;20078;-59
2022/08/19 01:27:07;;;;;;;13.23;6.20;;;15.10;99.90;;;;;;5153486;27;20542;-58
2022/08/19 01:29:35;;;;;;;9.95;6.82;;;15.00;99.90;;;;;;5136314;27;20088;-58
2022/08/19 01:32:02;;;;;;;9.95;6.00;;;15.00;99.90;;;;;;5154971;27;20055;-59
2022/08/19 01:34:29;;;;;;;7.72;6.05;;;15.00;99.90;;;;;;5153862;27;20087;-58
2022/08/19 01:36:56;;;;;;;9.55;6.72;;;15.00;99.90;;;;;;5148541;27;20103;-59
2022/08/19 01:39:25;;;;;;;10.57;6.85;;;15.00;99.90;;;;;;5133748;28;20482;-59
2022/08/19 01:41:54;;;;;;;10.30;7.22;;;15.00;99.90;;;;;;5114395;28;20051;-59
2022/08/19 01:44:23;;;;;;;13.05;7.28;;;14.90;99.90;;;;;;5136339;27;20047;-58
2022/08/19 01:46:51;;;;;;;8.38;6.55;;;15.00;99.90;;;;;;5119564;27;20054;-58
2022/08/19 01:49:21;;;;;;;9.27;6.65;;;15.00;99.90;;;;;;5137710;27;20050;-58
2022/08/19 01:51:49;;;;;;;9.80;6.40;;;15.00;99.90;;;;;;5137581;27;20123;-59
2022/08/19 01:54:17;;;;;;;13.93;7.30;;;15.00;99.90;;;;;;5136876;27;20047;-59
2022/08/19 01:56:44;;;;;;;11.05;7.38;;;15.00;99.90;;;;;;5137761;27;20079;-58
2022/08/19 01:59:16;;;;;;;12.68;7.28;;;14.90;99.90;;;;;;5119291;27;20544;-59
2022/08/19 02:01:43;;;;;;;12.52;8.65;;;14.80;99.90;;;;;;5118756;27;20115;-60
2022/08/19 02:04:11;;;;;;;12.82;8.07;;;14.90;99.90;;;;;;5138539;27;20043;-59
2022/08/19 02:06:39;;;;;;;11.80;7.65;;;14.80;99.90;;;;;;5133510;27;20094;-59
2022/08/19 02:09:08;;;;;;;11.27;8.23;;;14.80;99.90;;;;;;5138916;27;20058;-58
2022/08/19 02:11:37;;;;;;;12.90;9.27;;;14.80;99.90;;;;;;5158297;27;20521;-59
2022/08/19 02:14:07;;;;;;;13.75;7.93;;;14.80;99.90;;;;;;5158182;27;20107;-60
2022/08/19 02:16:36;;;;;;;12.10;8.23;;;14.80;99.90;;;;;;5157385;27;20082;-59
2022/08/19 02:19:04;;;;;;;14.45;9.43;;;14.80;99.90;;;;;;5157820;27;20085;-58
2022/08/19 02:21:31;;;;;;;16.05;9.90;;;14.70;99.90;;;;;;5146507;27;20095;-58
2022/08/19 02:23:59;;;;;;;13.38;8.73;;;14.70;99.90;;;;;;5136802;27;20043;-58
2022/08/19 02:26:27;;;;;;;15.60;9.48;;;14.70;99.90;;;;;;5118810;27;20120;-59
2022/08/19 02:28:55;;;;;;;11.50;8.43;;;14.70;99.90;;;;;;5136809;27;20047;-59
2022/08/19 02:31:24;;;;;;;13.05;8.43;;;14.60;99.90;;;;;;5136285;27;20406;-58
2022/08/19 02:33:53;;;;;;;12.95;8.95;;;14.60;99.90;;;;;;5134426;27;20538;-59
2022/08/19 02:36:20;;;;;;;13.40;9.07;;;14.60;99.90;;;;;;5136473;27;20051;-59
2022/08/19 02:38:46;;;;;;;15.10;8.05;;;14.60;99.90;;;;;;5118741;27;20056;-59
2022/08/19 02:41:15;;;;;;;12.60;7.90;;;14.60;99.90;;;;;;5118630;27;20043;-58
2022/08/19 02:43:42;;;;;;;11.27;7.72;;;14.60;99.90;;;;;;5135943;27;20478;-59
2022/08/19 02:46:14;;;;;;;11.07;7.47;;;14.60;99.90;;;;;;5143293;27;20079;-59
2022/08/19 02:48:41;;;;;;;14.25;7.40;;;14.60;99.90;;;;;;5139293;27;20082;-59
2022/08/19 02:51:09;;;;;;;11.18;7.88;;;14.50;99.90;;;;;;5156644;27;20126;-59
2022/08/19 02:53:37;;;;;;;15.23;8.07;;;14.50;99.90;;;;;;5157371;27;20410;-59
2022/08/19 02:56:09;;;;;;;12.25;7.47;;;14.50;99.90;;;;;;5156363;27;20047;-59
2022/08/19 02:58:35;;;;;;;14.43;7.05;;;14.50;99.90;;;;;;5156295;27;20047;-58
2022/08/19 03:01:02;;;;;;;14.23;8.77;;;14.60;99.90;;;;;;5157072;27;20042;-58
2022/08/19 03:03:29;;;;;;;10.65;8.07;;;14.50;99.90;;;;;;5157037;27;20444;-59
2022/08/19 03:06:09;;;;;;;12.60;8.05;;;14.50;99.90;;;;;;5139700;27;20051;-60
2022/08/19 03:08:36;;;;;;;10.15;7.70;;;14.50;99.90;;;;;;5117894;27;20059;-60
2022/08/19 03:11:03;;;;;;;14.63;8.15;;;14.50;99.90;;;;;;5136128;27;20059;-59
2022/08/19 03:13:30;;;;;;;13.73;8.55;;;14.40;99.90;;;;;;5117297;27;20466;-59
2022/08/19 03:15:57;;;;;;;13.38;9.02;;;14.40;99.90;;;;;;5136167;27;20101;-59
2022/08/19 03:18:24;;;;;;;12.80;8.70;;;14.40;99.90;;;;;;5135330;27;20055;-59
2022/08/19 03:20:54;;;;;;;14.07;9.68;;;14.30;99.90;;;;;;5153507;27;20058;-59
2022/08/19 03:23:22;;;;;;;13.75;9.40;;;14.30;99.90;;;;;;5138213;27;20123;-60
2022/08/19 03:25:52;;;;;;;16.80;9.68;;;14.30;99.90;;;;;;5137646;27;20133;-59
2022/08/19 03:28:19;;;;;;;13.75;9.80;;;14.30;99.90;;;;;;5138269;27;20047;-59
2022/08/19 03:30:57;;;;;;;14.23;9.57;;;14.30;99.90;;;;;;5156689;27;20482;-58
2022/08/19 03:33:24;;;;;;;14.32;10.45;;;14.20;99.90;;;;;;5136217;27;20042;-58
2022/08/19 03:36:01;;;;;;;14.20;9.57;;;14.20;99.90;;;;;;5135160;27;20047;-58
2022/08/19 03:38:31;;;;;;;18.33;10.50;;;14.20;99.90;;;;;;5117012;27;20492;-59
2022/08/19 03:40:58;;;;;;;15.73;10.30;;;14.20;99.90;;;;;;5116790;27;20047;-58
2022/08/19 03:43:25;;;;;;;15.43;10.10;;;14.20;99.90;;;;;;5117327;27;20043;-58
2022/08/19 03:46:01;;;;;;;12.77;9.85;;;14.10;99.90;;;;;;5117125;27;20054;-58
2022/08/19 03:48:27;;;;;;;19.08;10.43;;;14.10;99.90;;;;;;5116399;27;20058;-58
2022/08/19 03:50:54;;;;;;;22.52;11.07;;;14.10;99.90;;;;;;5135770;27;20065;-58
2022/08/19 03:53:21;;;;;;;15.73;10.30;;;14.10;99.90;;;;;;5135470;27;20144;-58
2022/08/19 03:55:49;;;;;;;18.70;10.68;;;14.10;99.90;;;;;;5134283;27;20502;-59
2022/08/19 03:58:16;;;;;;;14.93;10.70;;;14.10;99.90;;;;;;5135429;27;20082;-59
2022/08/19 04:00:43;;;;;;;16.73;10.88;;;14.10;99.90;;;;;;5134478;27;20047;-58
2022/08/19 04:03:10;;;;;;;16.35;10.95;;;14.10;99.90;;;;;;5135075;27;20170;-58
2022/08/19 04:05:37;;;;;;;15.07;10.60;;;14.10;99.90;;;;;;5152363;27;20046;-58
2022/08/19 04:08:05;;;;;;;17.10;10.10;;;14.10;99.90;;;;;;5155058;27;20042;-59
2022/08/19 04:10:35;;;;;;;18.75;10.82;;;14.10;99.90;;;;;;5119296;27;20133;-59
2022/08/19 04:13:05;;;;;;;17.13;10.77;;;14.10;99.90;;;;;;5135313;27;20043;-58
2022/08/19 04:15:35;;;;;;;17.92;11.45;;;14.00;99.90;;;;;;5115498;27;20054;-58
2022/08/19 04:18:02;;;;;;;15.45;10.68;;;14.10;99.90;;;;;;5134959;27;20053;-58
2022/08/19 04:20:29;;;;;;;14.35;10.80;;;14.10;99.90;;;;;;5134788;27;20554;-59
2022/08/19 04:22:58;;;;;;;15.05;11.07;;;14.10;99.90;;;;;;5134007;27;20047;-59
2022/08/19 04:25:24;;;;;;;16.33;10.57;;;14.10;99.90;;;;;;5134213;27;20095;-60
2022/08/19 04:27:51;;;;;;;15.00;11.02;;;14.10;99.90;;;;;;5155424;27;20086;-59
2022/08/19 04:30:21;;;;;;;19.95;10.48;;;14.10;99.90;;;;;;5154323;27;20050;-58
2022/08/19 04:32:49;;;;;;;15.57;10.38;;;14.10;99.90;;;;;;5137265;27;20545;-58
2022/08/19 04:35:16;;;;;;;12.55;8.63;;;14.10;99.90;;;;;;5152656;27;20042;-58
2022/08/19 04:37:43;;;;;;;13.95;9.90;;;14.20;99.90;;;;;;5144604;27;20069;-58
2022/08/19 04:42:56;;;;;;;15.00;10.45;;;14.50;99.90;;;;;;5142420;27;20429;-59
2022/08/19 04:45:24;;;;;;;14.00;9.95;;;14.60;99.90;;;;;;5130618;27;20073;-59
2022/08/19 04:47:55;;;;;;;9.38;6.43;;;14.90;99.90;;;;;;5142606;27;20440;-59
2022/08/19 04:50:24;;;;;;;14.32;9.18;;;14.90;99.90;;;;;;5150077;27;20480;-57
2022/08/19 04:52:52;;;;;;;18.67;10.10;;;15.00;99.90;;;;;;5153145;27;20046;-58
2022/08/19 04:55:19;;;;;;;10.68;7.75;;;14.90;99.90;;;;;;5152760;27;20054;-58
2022/08/19 04:57:46;;;;;;;11.27;7.60;;;15.00;99.90;;;;;;5152509;27;20095;-60
2022/08/19 05:00:13;;;;;;;13.60;8.48;;;15.10;99.90;;;;;;5150663;27;20482;-59
2022/08/19 05:02:41;;;;;;;12.52;8.98;;;15.20;99.90;;;;;;5144383;27;20046;-59
2022/08/19 05:05:08;;;;;;;13.05;8.98;;;15.30;99.90;;;;;;5144003;27;20058;-58
2022/08/19 05:07:36;;;;;;;12.05;8.57;;;15.30;99.90;;;;;;5122326;27;20050;-59
2022/08/19 05:10:05;;;;;;;11.68;7.93;;;15.40;99.90;;;;;;5126631;27;20100;-60
2022/08/19 05:12:32;;;;;;;13.63;10.48;;;15.50;99.90;;;;;;5126512;27;20051;-58
2022/08/19 05:15:00;;;;;;;15.18;9.90;;;15.60;99.90;;;;;;5128029;27;20098;-58
2022/08/19 05:17:28;;;;;;;12.13;8.27;;;15.50;99.90;;;;;;5123275;27;20103;-58
2022/08/19 05:22:41;;;;;;;12.80;8.05;;;15.50;99.90;;;;;;5139011;27;20047;-59
2022/08/19 05:25:12;;;;;;;12.57;8.55;;;15.60;99.90;;;;;;5147883;27;20158;-59
2022/08/19 05:27:38;;;;;;;;;;;15.60;99.90;;;;;;5125000;27;20051;-59
2022/08/19 05:30:07;;;;;;;14.63;8.93;;;15.60;99.90;;;;;;5135728;27;19973;-59
2022/08/19 05:32:33;;;;;;;13.18;8.60;;;15.60;99.90;;;;;;5143062;27;20082;-59
2022/08/19 05:35:02;;;;;;;12.60;9.05;;;15.60;99.90;;;;;;5147259;27;20103;-59
2022/08/19 05:37:29;;;;;;;14.10;8.65;;;15.60;99.90;;;;;;5138031;27;20073;-58
2022/08/19 05:39:56;;;;;;;13.60;9.02;;;15.70;99.90;;;;;;5139366;27;20378;-58
2022/08/19 05:42:23;;;;;;;14.80;9.35;;;15.80;99.90;;;;;;5115735;28;20555;-58
2022/08/19 05:44:51;;;;;;;14.68;10.27;;;15.80;99.90;;;;;;5131802;27;20346;-58
2022/08/19 05:47:19;;;;;;;17.05;9.98;;;15.80;99.90;;;;;;5137653;27;20050;-58
2022/08/19 05:49:46;;;;;;;16.42;11.32;;;15.80;99.90;;;;;;5135941;27;20393;-59
2022/08/19 05:52:16;;;;;;;16.20;9.43;;;15.90;99.90;;;;;;5154519;27;20130;-59
2022/08/19 05:54:44;;;;;;;15.27;9.87;;;15.90;99.90;;;;;;5152559;27;20126;-59
2022/08/19 05:57:11;;;;;;;12.25;9.07;;;16.00;99.90;;;;;;5119007;28;20055;-58
2022/08/19 05:59:38;;;;;;;13.02;9.07;;;16.10;99.90;;;;;;5115490;28;20055;-59
2022/08/19 06:02:07;;;;;;;11.00;8.65;;;16.20;99.90;;;;;;5114265;28;20051;-59
2022/08/19 06:04:34;;;;;;;14.07;8.85;;;16.40;99.90;;;;;;5133580;28;20044;-59
2022/08/19 06:07:01;;;;;;;12.55;8.75;;;16.70;99.90;;;;;;5141719;27;20051;-58
2022/08/19 06:09:30;;;;;;;12.57;9.38;;;16.80;99.90;;;;;;5142902;27;20130;-57
2022/08/19 06:11:59;;;;;;;11.85;8.95;;;16.90;99.90;;;;;;5143265;27;20092;-58
2022/08/19 06:14:29;;;;;;;12.18;9.55;;;17.00;99.90;;;;;;5116214;28;20075;-58
2022/08/19 06:16:56;;;;;;;11.25;8.35;;;17.20;99.90;;;;;;5133360;28;20103;-58
2022/08/19 06:19:25;;;;;;;13.02;8.60;;;17.40;99.90;;;;;;5131965;27;20074;-58
2022/08/19 06:21:53;;;;;;;13.23;9.00;;;17.70;99.90;;;;;;5152867;27;20046;-59
2022/08/19 06:24:23;;;;;;;11.63;8.40;;;18.00;99.90;;;;;;5153900;27;20054;-59
2022/08/19 06:26:54;;;;;;;13.77;9.02;;;18.30;99.90;;;;;;5135791;27;20138;-58
2022/08/19 06:29:23;;;;;;;10.27;8.07;;;18.70;99.90;;;;;;5132170;27;20442;-58
2022/08/19 06:31:54;;;;;;;13.40;9.18;;;19.20;99.90;;;;;;5136160;27;20047;-57
2022/08/19 06:34:21;;;;;;;11.20;8.07;;;19.70;99.90;;;;;;5118720;27;20047;-60
2022/08/19 06:36:50;;;;;;;8.60;7.32;;;20.20;99.90;;;;;;5135786;27;20191;-60
2022/08/19 06:39:20;;;;;;;10.48;7.82;;;20.80;99.90;;;;;;5136597;27;20086;-58
2022/08/19 06:41:50;;;;;;;10.93;7.82;;;21.30;99.90;;;;;;5118207;27;20093;-59
2022/08/19 06:44:19;;;;;;;10.88;7.22;;;21.70;99.90;;;;;;5137359;27;20104;-60
2022/08/19 06:46:45;;;;;;;10.95;6.20;;;22.30;99.90;;;;;;5147649;27;20107;-59
2022/08/19 06:49:13;;;;;;;7.35;5.65;;;22.80;99.90;;;;;;5139300;27;20490;-59
2022/08/19 06:51:43;;;;;;;9.32;6.68;;;23.40;99.90;;;;;;5135524;27;20417;-58
2022/08/19 06:54:10;;;;;;;8.90;6.45;;;23.90;99.90;;;;;;5136348;27;20402;-60
2022/08/19 06:56:38;;;;;;;8.20;7.00;;;24.40;99.90;;;;;;5117350;27;20111;-60
2022/08/19 06:59:06;;;;;;;8.02;6.32;;;25.00;99.90;;;;;;5117649;27;20051;-59
2022/08/19 07:01:38;;;;;;;11.20;6.75;;;25.20;99.90;;;;;;5148840;27;20034;-60
2022/08/19 07:04:06;;;;;;;8.80;6.15;;;25.50;99.90;;;;;;5127965;27;20049;-59
2022/08/19 07:06:33;;;;;;;10.27;6.10;;;26.00;99.90;;;;;;5143259;27;20123;-58
2022/08/19 07:09:00;;;;;;;8.73;5.93;;;26.40;99.90;;;;;;5146428;27;20482;-59
2022/08/19 07:11:27;;;;;;;8.57;6.13;;;26.80;99.90;;;;;;5131549;27;20144;-58
2022/08/19 07:13:55;;;;;;;8.85;5.63;;;27.00;99.90;;;;;;5142857;27;20087;-59
2022/08/19 07:16:22;;;;;;;7.72;5.90;;;27.30;99.90;;;;;;5151185;27;20051;-60
2022/08/19 07:18:51;;;;;;;7.65;5.63;;;27.40;99.90;;;;;;5138795;27;20055;-59
2022/08/19 07:21:21;;;;;;;7.32;5.93;;;27.70;99.90;;;;;;5125564;27;20047;-59
2022/08/19 07:23:48;;;;;;;8.10;6.03;;;27.70;99.90;;;;;;5136143;27;20043;-59
2022/08/19 07:26:18;;;;;;;9.55;6.47;;;28.00;99.90;;;;;;5155105;27;20438;-61
2022/08/19 07:28:46;;;;;;;11.48;6.47;;;28.10;99.90;;;;;;5156697;27;20125;-59
2022/08/19 07:31:16;;;;;;;6.80;5.97;;;28.20;99.90;;;;;;5153222;27;20490;-60
2022/08/19 07:33:43;;;;;;;14.05;6.65;;;28.20;99.40;;;;;;5137781;27;20107;-58
2022/08/19 07:36:15;;;;;;;7.95;5.85;;;28.40;99.10;;;;;;5155629;27;20043;-59
2022/08/19 07:38:44;;;;;;;9.50;6.30;;;28.70;98.40;;;;;;5136853;27;20054;-59
2022/08/19 07:41:14;;;;;;;6.90;5.68;;;28.80;98.40;;;;;;5131930;27;20095;-60
2022/08/19 07:43:43;;;;;;;;;;;29.00;97.20;;;;;;5129645;27;20054;-60
2022/08/19 07:46:10;;;;;;;8.10;6.13;;;28.90;95.20;;;;;;5136466;27;19923;-60
2022/08/19 07:48:37;;;;;;;7.53;5.95;;;29.00;97.30;;;;;;5149320;27;20396;-59
2022/08/19 07:51:07;;;;;;;7.40;5.65;;;29.30;96.90;;;;;;5135203;27;20054;-59
2022/08/19 07:53:37;;;;;;;9.77;4.80;;;29.50;96.20;;;;;;5134822;27;20047;-59
2022/08/19 07:56:05;;;;;;;9.65;6.35;;;29.70;95.70;;;;;;5116777;27;20448;-60
2022/08/19 07:58:34;;;;;;;8.20;5.68;;;30.10;95.70;;;;;;5134715;27;20103;-59
2022/08/19 08:01:01;;;;;;;7.20;5.57;;;30.30;94.80;;;;;;5112195;27;20050;-60
2022/08/19 08:09:12;;;;;;;9.43;5.95;;;30.90;93.30;;;;;;5132492;27;20375;-60
2022/08/19 08:11:39;;;;;;;6.30;5.70;;;30.90;92.70;;;;;;5134950;27;20486;-59
2022/08/19 08:14:06;;;;;;;8.00;5.97;;;31.10;92.80;;;;;;5133401;27;20657;-60
2022/08/19 08:16:36;;;;;;;7.10;5.68;;;31.00;92.50;;;;;;5144017;27;20135;-60
2022/08/19 08:19:06;;;;;;;8.57;5.75;;;31.00;92.20;;;;;;5120223;27;20050;-60
2022/08/19 08:21:33;;;;;;;9.60;6.22;;;31.20;92.40;;;;;;5134048;27;20062;-59
2022/08/19 08:24:01;;;;;;;7.47;5.20;;;31.10;91.50;;;;;;5144344;27;20047;-59
2022/08/19 08:26:28;;;;;;;7.90;6.60;;;31.30;91.40;;;;;;5145326;27;20043;-60
2022/08/19 08:28:56;;;;;;;8.75;6.22;;;31.40;91.10;;;;;;5140606;27;20039;-60
2022/08/19 08:31:23;;;;;;;8.40;6.20;;;31.70;90.70;;;;;;5148032;27;20409;-60
2022/08/19 08:33:50;;;;;;;6.65;5.88;;;31.90;90.50;;;;;;5119382;27;20090;-59
2022/08/19 08:36:16;;;;;;;7.80;6.00;;;32.10;89.90;;;;;;5115301;27;20126;-60
2022/08/19 08:38:46;;;;;;;9.43;7.03;;;32.00;89.60;;;;;;5115612;27;20051;-60
2022/08/19 08:41:23;;;;;;;8.98;6.63;;;32.20;88.10;;;;;;5147501;27;20061;-59
2022/08/19 08:43:52;;;;;;;7.30;6.50;;;32.10;89.00;;;;;;5154546;27;20421;-60
2022/08/19 08:46:26;;;;;;;7.25;6.40;;;32.30;88.60;;;;;;5142724;27;20430;-60
2022/08/19 08:48:58;;;;;;;7.63;6.18;;;32.30;87.30;;;;;;5133936;27;20051;-60
2022/08/19 08:51:30;;;;;;;9.13;6.78;;;32.60;88.00;;;;;;5154221;27;20051;-60
2022/08/19 08:53:57;;;;;;;7.53;6.32;;;32.90;86.80;;;;;;5135471;27;20471;-61
2022/08/19 08:56:26;;;;;;;9.73;6.57;;;33.00;87.00;;;;;;5153655;27;20400;-59
2022/08/19 08:58:59;;;;;;;8.60;7.37;;;32.90;85.90;;;;;;5154240;27;20118;-60
2022/08/19 09:01:27;;;;;;;7.28;5.85;;;32.90;85.00;;;;;;5154766;27;20050;-60
2022/08/19 09:03:54;;;;;;;7.35;5.97;;;33.00;85.00;;;;;;5137324;27;20047;-60
2022/08/19 09:06:28;;;;;;;7.60;6.25;;;33.00;84.60;;;;;;5115550;27;20055;-59
2022/08/19 09:09:03;;;;;;;7.22;6.03;;;33.20;83.90;;;;;;5133604;27;20082;-60
2022/08/19 09:11:51;;;;;;;7.05;6.25;;;33.30;83.80;;;;;;5114328;27;20473;-59
2022/08/19 09:14:37;;;;;;;8.18;6.65;;;33.50;81.80;;;;;;5115574;27;20082;-60
2022/08/19 09:17:07;;;;;;;6.82;5.78;;;33.40;81.80;;;;;;5131900;27;20462;-60
2022/08/19 09:19:35;;;;;;;6.65;5.72;;;33.60;82.40;;;;;;5132825;27;20646;-60
2022/08/19 09:22:02;;;;;;;7.70;5.70;;;33.50;82.30;;;;;;5114261;27;20103;-60
2022/08/19 09:24:29;;;;;;;7.93;6.18;;;33.90;81.40;;;;;;5114721;28;20270;-60
2022/08/19 09:26:57;;;;;;;15.13;6.70;;;34.10;80.50;;;;;;5114933;28;20055;-59
2022/08/19 09:29:24;;;;;;;8.07;6.57;;;34.20;80.00;;;;;;5133222;28;20051;-60
2022/08/19 09:31:51;;;;;;;8.00;6.60;;;34.10;79.50;;;;;;5132755;28;20132;-59
2022/08/19 09:34:19;;;;;;;7.47;6.10;;;34.20;79.30;;;;;;5133127;28;20108;-58
2022/08/19 09:36:46;;;;;;;8.02;5.90;;;34.30;79.00;;;;;;5132094;27;20139;-61
2022/08/19 09:39:13;;;;;;;7.55;5.88;;;34.30;79.00;;;;;;5114054;28;20063;-60
2022/08/19 09:41:40;;;;;;;7.53;6.80;;;34.20;78.70;;;;;;5114864;28;20107;-61
2022/08/19 09:44:08;;;;;;;7.68;6.88;;;34.50;78.20;;;;;;5133025;28;20083;-60
2022/08/19 09:46:35;;;;;;;6.70;6.00;;;34.50;77.90;;;;;;5114532;28;20104;-59
2022/08/19 09:49:05;;;;;;;16.48;6.32;;;34.50;77.70;;;;;;5132857;28;20047;-59
2022/08/19 09:51:33;;;;;;;9.23;6.28;;;34.50;78.00;;;;;;5131394;27;20524;-60
2022/08/19 09:54:01;;;;;;;8.20;5.72;;;34.80;77.30;;;;;;5132527;28;20524;-59
2022/08/19 09:56:29;;;;;;;8.90;7.93;;;35.20;76.50;;;;;;5114702;28;20461;-59
2022/08/19 09:58:59;;;;;;;7.38;6.63;;;35.20;75.50;;;;;;5114686;28;20047;-59
2022/08/19 10:01:29;;;;;;;11.82;7.20;;;34.90;75.10;;;;;;5132648;28;20047;-59
2022/08/19 10:03:58;;;;;;;12.93;6.88;;;34.80;75.90;;;;;;5132754;27;20459;-60
2022/08/19 10:06:29;;;;;;;8.05;7.25;;;34.90;75.20;;;;;;5136369;27;20083;-60
2022/08/19 10:08:56;;;;;;;9.38;7.03;;;35.20;74.90;;;;;;5117684;27;20054;-60
2022/08/19 10:11:23;;;;;;;9.00;8.10;;;35.10;74.50;;;;;;5136224;27;20051;-60
2022/08/19 10:13:50;;;;;;;7.88;7.05;;;34.90;74.90;;;;;;5136213;27;20103;-60
2022/08/19 10:16:21;;;;;;;8.02;6.75;;;34.90;75.60;;;;;;5117665;27;20143;-61
2022/08/19 10:18:50;;;;;;;8.82;7.90;;;35.20;75.50;;;;;;5118783;27;20058;-60
2022/08/19 10:21:19;;;;;;;7.72;6.93;;;35.20;74.00;;;;;;5123098;27;20099;-60
2022/08/19 10:23:49;;;;;;;8.18;7.10;;;35.00;74.80;;;;;;5139361;27;20079;-60
2022/08/19 10:26:19;;;;;;;9.18;7.15;;;35.10;74.90;;;;;;5138185;27;20123;-60
2022/08/19 10:28:45;;;;;;;7.90;7.10;;;35.00;75.00;;;;;;5156462;27;20463;-59
2022/08/19 10:31:19;;;;;;;9.18;6.60;;;34.80;75.20;;;;;;5147488;27;20107;-61
2022/08/19 10:33:46;;;;;;;8.23;7.43;;;35.00;74.90;;;;;;5153672;27;20129;-60
2022/08/19 10:36:18;;;;;;;7.80;7.03;;;35.20;73.90;;;;;;5154080;27;20188;-60
2022/08/19 10:38:46;;;;;;;9.55;6.97;;;35.60;74.00;;;;;;5154732;27;20047;-59
2022/08/19 10:41:14;;;;;;;8.27;7.00;;;35.40;73.80;;;;;;5133035;27;20051;-60
2022/08/19 10:43:41;;;;;;;8.85;7.68;;;35.80;73.20;;;;;;5155343;27;20099;-61
2022/08/19 10:46:10;;;;;;;7.47;6.65;;;35.90;72.60;;;;;;5156511;27;20043;-60
2022/08/19 10:48:37;;;;;;;7.38;6.35;;;35.80;72.40;;;;;;5135787;27;20096;-61
2022/08/19 10:53:51;;;;;;;7.20;6.18;;;35.50;71.90;;;;;;5136981;27;20043;-59
2022/08/19 10:59:04;;;;;;;8.88;7.30;;;35.30;73.50;;;;;;5136008;27;20043;-61
2022/08/19 11:01:32;;;;;;;11.43;8.60;;;35.40;73.80;;;;;;5129472;27;20201;-61
2022/08/19 11:04:01;;;;;;;8.48;6.88;;;36.10;72.70;;;;;;5154312;27;20051;-59
2022/08/19 11:06:29;;;;;;;7.80;5.63;;;36.10;72.50;;;;;;5156065;27;20042;-60
2022/08/19 11:08:57;;;;;;;8.32;6.90;;;36.30;72.60;;;;;;5136229;27;20307;-60
2022/08/19 11:11:24;;;;;;;10.10;8.30;;;36.60;72.50;;;;;;5154718;27;20494;-60
2022/08/19 11:13:52;;;;;;;9.90;7.97;;;36.70;71.10;;;;;;5150379;27;20051;-61
2022/08/19 11:16:22;;;;;;;8.55;7.63;;;36.50;71.10;;;;;;5150574;27;20550;-59
2022/08/19 11:18:52;;;;;;;9.85;8.07;;;36.70;71.20;;;;;;5151044;27;20079;-61
2022/08/19 11:21:22;;;;;;;10.13;7.80;;;36.80;71.50;;;;;;5153618;27;20050;-60
2022/08/19 11:23:51;;;;;;;11.57;8.25;;;36.90;71.80;;;;;;5135491;27;20099;-60
2022/08/19 11:26:20;;;;;;;9.38;8.00;;;36.40;72.00;;;;;;5137246;27;20078;-60
2022/08/19 11:28:48;;;;;;;11.30;8.45;;;35.60;73.00;;;;;;5155987;27;20162;-60
2022/08/19 11:31:18;;;;;;;10.20;9.02;;;35.30;72.50;;;;;;5134432;27;20082;-60
2022/08/19 11:33:46;;;;;;;7.93;6.95;;;35.10;72.60;;;;;;5117046;27;20055;-60
2022/08/19 11:36:13;;;;;;;8.00;6.78;;;35.20;72.40;;;;;;5136143;27;20122;-60
2022/08/19 11:38:40;;;;;;;8.70;7.80;;;34.60;72.40;;;;;;5136720;27;20170;-62
2022/08/19 11:41:08;;;;;;;7.68;6.68;;;34.00;72.80;;;;;;5135725;27;20078;-59
2022/08/19 11:43:37;;;;;;;9.05;8.15;;;33.20;74.30;;;;;;5153975;27;20387;-59
2022/08/19 11:46:06;;;;;;;10.52;7.85;;;32.30;75.80;;;;;;5154014;27;20375;-60
2022/08/19 11:48:33;;;;;;;10.00;8.40;;;31.80;77.10;;;;;;5154966;27;20125;-61
2022/08/19 11:51:05;;;;;;;10.25;8.88;;;31.40;77.80;;;;;;5136691;27;20103;-60
2022/08/19 11:53:33;;;;;;;15.80;8.75;;;30.90;79.00;;;;;;5135011;27;20422;-60
2022/08/19 11:56:01;;;;;;;9.13;7.97;;;30.80;80.10;;;;;;5115252;27;20047;-60
2022/08/19 11:58:28;;;;;;;8.60;7.55;;;30.80;80.10;;;;;;5115246;27;20112;-61
2022/08/19 12:00:57;;;;;;;8.32;7.13;;;30.90;79.00;;;;;;5133414;27;20050;-59
2022/08/19 12:03:24;;;;;;;9.60;6.95;;;31.00;78.90;;;;;;5116241;27;20474;-60
2022/08/19 12:05:51;;;;;;;8.68;7.28;;;31.20;78.10;;;;;;5134619;27;20042;-59
2022/08/19 12:08:19;;;;;;;9.40;6.18;;;31.20;77.80;;;;;;5141408;27;20115;-60
2022/08/19 12:10:46;;;;;;;7.18;6.47;;;30.90;77.10;;;;;;5153758;27;20096;-60
2022/08/19 12:13:18;;;;;;;7.88;6.68;;;30.80;77.20;;;;;;5134125;27;20047;-60
2022/08/19 12:15:47;;;;;;;7.70;6.80;;;30.60;77.80;;;;;;5138275;27;20043;-59
2022/08/19 12:18:16;;;;;;;7.78;6.20;;;30.50;78.00;;;;;;5136730;27;20061;-60
2022/08/19 12:20:45;;;;;;;8.52;7.03;;;30.40;78.80;;;;;;5138013;27;20104;-59
2022/08/19 12:23:12;;;;;;;8.35;6.93;;;30.30;79.50;;;;;;5154256;27;20070;-59
2022/08/19 12:25:49;;;;;;;9.27;6.95;;;30.30;79.90;;;;;;5154216;27;20103;-60
2022/08/19 12:28:16;;;;;;;9.68;6.40;;;30.30;80.90;;;;;;5136669;27;20087;-60
2022/08/19 12:30:43;;;;;;;8.50;6.90;;;30.40;80.50;;;;;;5134415;27;20092;-60
2022/08/19 12:33:10;;;;;;;7.80;7.00;;;30.60;80.50;;;;;;5133857;27;20095;-60
2022/08/19 12:35:42;;;;;;;8.18;6.45;;;30.80;80.40;;;;;;5133619;27;20051;-58
2022/08/19 12:38:09;;;;;;;9.38;6.50;;;31.10;79.20;;;;;;5151669;27;20451;-60
2022/08/19 12:40:35;;;;;;;10.57;6.60;;;31.00;78.70;;;;;;5135501;27;20110;-60
2022/08/19 12:43:02;;;;;;;8.27;5.97;;;30.80;78.50;;;;;;5135888;27;20050;-59
2022/08/19 12:45:29;;;;;;;7.82;6.53;;;30.70;78.40;;;;;;5136162;27;20080;-61
2022/08/19 12:47:56;;;;;;;8.98;6.82;;;30.50;78.30;;;;;;5136379;27;20055;-59
2022/08/19 12:50:23;;;;;;;7.03;6.03;;;30.30;78.50;;;;;;5154122;27;20095;-60
2022/08/19 12:52:51;;;;;;;8.80;7.38;;;30.20;79.30;;;;;;5136538;27;20086;-59
2022/08/19 12:55:19;;;;;;;9.52;7.60;;;29.90;79.90;;;;;;5153276;27;20149;-60
2022/08/19 12:57:48;;;;;;;13.10;8.02;;;29.50;81.30;;;;;;5136213;27;20055;-59
2022/08/19 13:00:18;;;;;;;11.43;7.75;;;29.40;82.00;;;;;;5152577;27;20043;-59
2022/08/19 13:02:46;;;;;;;11.80;9.25;;;29.40;83.40;;;;;;5135117;27;20085;-60